createdAt,value
2023-01-05T00:01:15.909Z,7.50
2023-01-05T00:05:18.062Z,7.50
2023-01-05T00:09:21.597Z,7.60
2023-01-05T00:13:42.280Z,7.60
2023-01-05T00:22:32.718Z,7.50
2023-01-05T00:26:34.828Z,7.60
2023-01-05T00:30:44.988Z,7.60
2023-01-05T00:34:47.121Z,7.70
2023-01-05T00:38:50.340Z,7.70
2023-01-05T00:42:52.473Z,7.70
2023-01-05T00:46:54.920Z,7.80
2023-01-05T00:50:57.240Z,7.80
2023-01-05T00:54:59.439Z,7.70
2023-01-05T00:59:02.878Z,7.70
2023-01-05T01:03:05.101Z,7.70
2023-01-05T01:07:09.463Z,7.50
2023-01-05T01:11:11.918Z,7.50
2023-01-05T01:15:15.366Z,7.50
2023-01-05T01:19:20.644Z,7.60
2023-01-05T01:23:23.234Z,7.60
2023-01-05T01:27:31.227Z,7.60
2023-01-05T01:31:35.818Z,7.60
2023-01-05T01:35:41.309Z,7.50
2023-01-05T01:39:43.934Z,7.60
2023-01-05T01:43:58.156Z,7.60
2023-01-05T01:48:03.109Z,7.60
2023-01-05T01:52:10.387Z,7.70
2023-01-05T01:56:16.357Z,7.80
2023-01-05T02:00:19.484Z,7.90
2023-01-05T02:04:26.279Z,7.90
2023-01-05T02:08:31.563Z,8.00
2023-01-05T02:12:49.107Z,7.90
2023-01-05T02:17:22.005Z,8.00
2023-01-05T02:21:39.381Z,8.00
2023-01-05T02:26:19.081Z,8.10
2023-01-05T02:30:28.539Z,8.10
2023-01-05T02:35:00.185Z,8.10
2023-01-05T02:39:15.255Z,8.00
2023-01-05T02:43:20.877Z,7.90
2023-01-05T02:47:30.131Z,7.90
2023-01-05T02:51:45.744Z,7.90
2023-01-05T02:56:14.131Z,7.90
2023-01-05T03:00:27.903Z,7.80
2023-01-05T03:04:47.351Z,7.80
2023-01-05T03:08:53.209Z,7.80
2023-01-05T03:13:42.370Z,7.70
2023-01-05T03:17:50.205Z,7.70
2023-01-05T03:22:15.712Z,7.70
2023-01-05T03:26:38.606Z,7.70
2023-01-05T03:31:38.640Z,7.60
2023-01-05T03:35:46.823Z,7.60
2023-01-05T03:39:51.360Z,7.70
2023-01-05T03:43:56.271Z,7.70
2023-01-05T03:47:59.632Z,7.70
2023-01-05T03:52:03.939Z,7.70
2023-01-05T03:56:10.414Z,7.80
2023-01-05T04:00:13.413Z,7.80
2023-01-05T04:04:26.551Z,7.80
2023-01-05T04:08:30.366Z,7.80
2023-01-05T04:12:33.719Z,8.00
2023-01-05T04:16:40.244Z,8.00
2023-01-05T04:20:55.837Z,8.20
2023-01-05T04:24:58.717Z,8.20
2023-01-05T04:29:05.779Z,8.30
2023-01-05T04:33:09.266Z,8.40
2023-01-05T04:37:18.326Z,8.40
2023-01-05T04:41:20.657Z,8.40
2023-01-05T04:45:27.362Z,8.20
2023-01-05T04:49:30.555Z,8.20
2023-01-05T04:53:33.697Z,8.20
2023-01-05T04:57:39.094Z,8.30
2023-01-05T05:01:42.012Z,8.30
2023-01-05T05:06:17.575Z,8.40
2023-01-05T05:10:21.282Z,8.40
2023-01-05T05:14:26.096Z,8.30
2023-01-05T05:18:29.644Z,8.30
2023-01-05T05:22:32.158Z,8.30
2023-01-05T05:26:40.321Z,8.30
2023-01-05T05:30:42.557Z,8.20
2023-01-05T05:34:49.174Z,8.20
2023-01-05T05:38:51.566Z,8.30
2023-01-05T05:43:45.829Z,8.30
2023-01-05T05:47:47.978Z,8.30
2023-01-05T05:51:50.413Z,8.30
2023-01-05T05:55:52.729Z,8.30
2023-01-05T05:59:57.006Z,8.40
2023-01-05T06:03:59.125Z,8.50
2023-01-05T06:08:02.224Z,8.50
2023-01-05T06:12:04.812Z,8.60
2023-01-05T06:16:32.933Z,8.50
2023-01-05T06:20:35.185Z,8.60
2023-01-05T06:24:37.325Z,8.60
2023-01-05T06:28:41.830Z,8.60
2023-01-05T06:32:43.953Z,8.60
2023-01-05T06:36:51.152Z,8.60
2023-01-05T06:40:54.797Z,8.70
2023-01-05T06:45:21.912Z,8.70
2023-01-05T06:49:24.264Z,8.70
2023-01-05T06:53:26.667Z,8.70
2023-01-05T06:57:28.776Z,8.70
2023-01-05T07:02:20.755Z,8.60
2023-01-05T07:06:22.999Z,8.60
2023-01-05T07:10:27.242Z,8.60
2023-01-05T07:14:29.369Z,8.60
2023-01-05T07:18:31.479Z,8.70
2023-01-05T07:22:33.620Z,8.70
2023-01-05T07:26:41.294Z,8.70
2023-01-05T07:30:43.524Z,8.80
2023-01-05T07:34:54.985Z,8.90
2023-01-05T07:38:59.628Z,8.90
2023-01-05T07:43:04.632Z,8.90
2023-01-05T07:47:06.886Z,9.00
2023-01-05T07:51:35.773Z,9.00
2023-01-05T07:55:38.157Z,9.00
2023-01-05T08:01:01.835Z,9.00
2023-01-05T08:05:04.094Z,8.90
2023-01-05T08:09:28.493Z,8.90
2023-01-05T08:13:53.675Z,8.90
2023-01-05T08:17:55.811Z,8.90
2023-01-05T08:22:00.883Z,8.90
2023-01-05T08:26:06.908Z,8.90
2023-01-05T08:30:09.941Z,8.90
2023-01-05T08:34:13.292Z,8.90
2023-01-05T08:38:15.503Z,8.90
2023-01-05T08:42:19.093Z,8.90
2023-01-05T08:46:23.598Z,8.90
2023-01-05T08:50:26.096Z,8.90
2023-01-05T08:54:28.271Z,8.90
2023-01-05T08:58:37.396Z,8.90
2023-01-05T09:02:39.819Z,8.90
2023-01-05T09:07:09.939Z,8.90
2023-01-05T09:11:18.512Z,8.90
2023-01-05T09:15:26.832Z,8.90
2023-01-05T09:19:31.372Z,8.80
2023-01-05T09:23:36.990Z,8.90
2023-01-05T09:27:39.308Z,8.90
2023-01-05T09:31:46.392Z,8.90
2023-01-05T09:35:56.823Z,8.90
2023-01-05T09:39:59.066Z,8.70
2023-01-05T09:44:17.855Z,8.20
2023-01-05T09:48:33.943Z,7.50
2023-01-05T09:52:38.541Z,7.20
2023-01-05T10:01:07.127Z,6.90
2023-01-05T10:05:14.838Z,6.70
2023-01-05T10:09:32.484Z,6.70
2023-01-05T10:13:41.078Z,6.70
2023-01-05T10:17:56.038Z,6.80
2023-01-05T10:22:07.167Z,6.80
2023-01-05T10:26:20.042Z,6.90
2023-01-05T10:30:35.317Z,7.20
2023-01-05T10:35:05.740Z,7.30
2023-01-05T10:39:36.992Z,7.40
2023-01-05T10:44:07.603Z,7.40
2023-01-05T10:48:25.155Z,7.50
2023-01-05T10:52:27.788Z,7.50
2023-01-05T10:56:44.494Z,7.60
2023-01-05T11:00:47.049Z,7.80
2023-01-05T11:04:50.913Z,7.80
2023-01-05T11:08:53.430Z,8.00
2023-01-05T11:13:05.850Z,8.00
2023-01-05T11:17:12.561Z,8.00
2023-01-05T11:21:22.825Z,8.30
2023-01-05T11:25:31.225Z,8.30
2023-01-05T11:29:44.955Z,8.40
2023-01-05T11:33:47.407Z,8.50
2023-01-05T11:37:49.624Z,8.40
2023-01-05T11:42:05.068Z,8.40
2023-01-05T11:46:08.074Z,8.50
2023-01-05T11:50:14.753Z,8.50
2023-01-05T11:54:34.257Z,8.40
2023-01-05T11:58:45.418Z,8.40
2023-01-05T12:03:29.088Z,8.40
2023-01-05T12:07:36.891Z,8.30
2023-01-05T12:12:04.502Z,8.10
2023-01-05T12:16:17.821Z,8.10
2023-01-05T12:20:26.223Z,8.10
2023-01-05T12:24:54.383Z,8.20
2023-01-05T12:34:03.323Z,8.40
2023-01-05T12:38:33.424Z,8.50
2023-01-05T12:43:01.028Z,8.70
2023-01-05T12:47:29.584Z,8.80
2023-01-05T12:51:49.476Z,8.70
2023-01-05T12:55:56.945Z,8.60
2023-01-05T13:00:12.156Z,8.60
2023-01-05T13:04:43.309Z,8.60
2023-01-05T13:09:05.050Z,8.60
2023-01-05T13:13:13.863Z,8.60
2023-01-05T13:17:26.654Z,8.40
2023-01-05T13:21:29.638Z,8.30
2023-01-05T13:25:40.825Z,8.20
2023-01-05T13:30:09.626Z,8.10
2023-01-05T13:34:34.556Z,8.10
2023-01-05T13:39:12.073Z,8.10
2023-01-05T13:43:26.305Z,8.10
2023-01-05T13:48:07.497Z,8.30
2023-01-05T13:52:32.284Z,8.30
2023-01-05T13:56:39.252Z,8.40
2023-01-05T14:01:09.441Z,8.40
2023-01-05T14:05:30.352Z,8.40
2023-01-05T14:09:38.947Z,8.20
2023-01-05T14:13:56.515Z,8.10
2023-01-05T14:18:02.376Z,8.10
2023-01-05T14:22:20.018Z,8.00
2023-01-05T14:27:01.683Z,8.10
2023-01-05T14:31:14.629Z,8.20
2023-01-05T14:35:37.223Z,8.30
2023-01-05T14:39:45.204Z,8.20
2023-01-05T14:44:04.320Z,8.10
2023-01-05T14:48:53.290Z,7.90
2023-01-05T14:52:57.631Z,7.70
2023-01-05T14:57:26.080Z,7.40
2023-01-05T15:01:54.742Z,7.20
2023-01-05T15:06:18.439Z,7.10
2023-01-05T15:10:55.148Z,7.00
2023-01-05T15:15:28.192Z,6.90
2023-01-05T15:19:55.214Z,6.80
2023-01-05T15:24:27.631Z,6.70
2023-01-05T15:33:19.186Z,6.50
2023-01-05T15:37:40.034Z,6.50
2023-01-05T15:41:42.323Z,6.50
2023-01-05T15:45:51.493Z,6.40
2023-01-05T15:49:59.754Z,6.40
2023-01-05T15:54:05.608Z,6.40
2023-01-05T15:58:16.065Z,6.30
2023-01-05T16:02:32.026Z,6.20
2023-01-05T16:06:39.380Z,6.20
2023-01-05T16:10:51.600Z,6.20
2023-01-05T16:15:02.724Z,6.20
2023-01-05T16:19:37.259Z,6.10
2023-01-05T16:24:15.932Z,6.10
2023-01-05T16:28:23.098Z,6.10
2023-01-05T16:33:05.945Z,6.10
2023-01-05T16:37:19.325Z,6.00
2023-01-05T16:41:26.833Z,5.90
2023-01-05T16:45:33.675Z,5.90
2023-01-05T16:49:43.615Z,5.90
2023-01-05T16:54:41.723Z,5.90
2023-01-05T16:58:44.003Z,5.80
2023-01-05T17:02:49.166Z,5.80
2023-01-05T17:06:53.699Z,5.80
2023-01-05T17:11:02.020Z,5.80
2023-01-05T17:15:06.666Z,5.70
2023-01-05T17:19:13.137Z,5.60
2023-01-05T17:23:47.077Z,5.60
2023-01-05T17:27:49.353Z,5.60
2023-01-05T17:32:16.821Z,5.60
2023-01-05T17:36:32.739Z,5.60
2023-01-05T17:40:35.118Z,5.50
2023-01-05T17:45:09.612Z,5.40
2023-01-05T17:49:17.475Z,5.50
2023-01-05T17:53:19.649Z,5.50
2023-01-05T17:57:23.991Z,5.50
2023-01-05T18:01:26.166Z,5.60
2023-01-05T18:05:53.933Z,5.60
2023-01-05T18:09:56.051Z,5.50
2023-01-05T18:14:00.450Z,5.50
2023-01-05T18:18:02.813Z,5.50
2023-01-05T18:22:05.904Z,5.40
2023-01-05T18:26:10.043Z,5.40
2023-01-05T18:30:42.560Z,5.30
2023-01-05T18:34:44.797Z,5.30
2023-01-05T18:38:46.958Z,5.30
2023-01-05T18:43:41.590Z,5.40
2023-01-05T18:47:43.686Z,5.50
2023-01-05T18:53:03.585Z,5.50
2023-01-05T18:57:05.679Z,5.50
2023-01-05T19:01:33.490Z,5.60
2023-01-05T19:05:41.154Z,5.60
2023-01-05T19:09:45.536Z,5.60
2023-01-05T19:13:51.404Z,5.70
2023-01-05T19:17:55.216Z,5.70
2023-01-05T19:21:58.248Z,5.70
2023-01-05T19:26:05.652Z,5.70
2023-01-05T19:30:08.702Z,5.80
2023-01-05T19:34:12.876Z,5.80
2023-01-05T19:38:42.428Z,5.80
2023-01-05T19:42:44.671Z,5.80
2023-01-05T19:46:53.337Z,5.90
2023-01-05T19:50:59.932Z,5.90
2023-01-05T19:55:05.042Z,5.90
2023-01-05T19:59:13.293Z,6.00
2023-01-05T20:03:16.173Z,5.90
2023-01-05T20:07:18.761Z,5.90
2023-01-05T20:11:43.479Z,5.90
2023-01-05T20:15:50.105Z,5.90
2023-01-05T20:19:52.218Z,5.90
2023-01-05T20:23:54.749Z,5.80
2023-01-05T20:27:58.055Z,5.90
2023-01-05T20:32:04.715Z,5.80
2023-01-05T20:36:07.288Z,5.80
2023-01-05T20:40:09.983Z,5.70
2023-01-05T20:44:13.593Z,5.70
2023-01-05T20:48:18.140Z,5.60
2023-01-05T20:52:20.905Z,5.60
2023-01-05T20:56:28.288Z,5.50
2023-01-05T21:00:35.176Z,5.50
2023-01-05T21:04:57.408Z,5.40
2023-01-05T21:09:00.466Z,5.40
2023-01-05T21:13:30.355Z,5.50
2023-01-05T21:17:27.335Z,5.40
2023-01-05T21:21:32.140Z,5.30
2023-01-05T21:26:06.267Z,5.30
2023-01-05T21:30:00.827Z,5.20
2023-01-05T21:34:05.335Z,5.10
2023-01-05T21:39:02.492Z,5.10
2023-01-05T21:43:04.102Z,5.10
2023-01-05T21:47:07.029Z,5.10
2023-01-05T21:51:29.435Z,5.10
2023-01-05T22:00:21.663Z,5.30
2023-01-05T22:04:24.179Z,5.40
2023-01-05T22:08:26.497Z,5.40
2023-01-05T22:12:28.615Z,5.50
2023-01-05T22:17:00.312Z,5.50
2023-01-05T22:21:05.485Z,5.50
2023-01-05T22:25:07.873Z,5.50
2023-01-05T22:29:10.301Z,5.60
2023-01-05T22:33:12.450Z,5.60
2023-01-05T22:37:19.112Z,5.60
2023-01-05T22:41:24.681Z,5.60
2023-01-05T22:45:26.966Z,5.60
2023-01-05T22:49:30.731Z,5.60
2023-01-05T22:53:33.570Z,5.60
2023-01-05T22:57:35.668Z,5.60
2023-01-05T23:01:45.275Z,5.60
2023-01-05T23:05:47.592Z,5.60
2023-01-05T23:09:51.088Z,5.60
2023-01-05T23:13:53.578Z,5.60
2023-01-05T23:18:00.022Z,5.60
2023-01-05T23:22:02.297Z,5.60
2023-01-05T23:26:07.872Z,5.60
2023-01-05T23:30:10.371Z,5.60
2023-01-05T23:34:40.246Z,5.60
2023-01-05T23:39:08.878Z,5.60
2023-01-05T23:43:12.365Z,5.60
2023-01-05T23:47:14.522Z,5.60
2023-01-05T23:51:18.373Z,5.60
2023-01-05T23:55:20.553Z,5.60
2023-01-05T23:59:25.003Z,5.60
